createdAt,value
2017-10-11T00:00:46.710Z,15.90
2017-10-11T00:03:15.663Z,13.37
2017-10-11T00:05:45.368Z,14.13
2017-10-11T00:08:15.181Z,12.77
2017-10-11T00:10:44.569Z,11.37
2017-10-11T00:13:13.556Z,10.10
2017-10-11T00:15:42.500Z,11.70
2017-10-11T00:18:11.469Z,12.37
2017-10-11T00:20:41.190Z,14.27
2017-10-11T00:23:10.181Z,11.73
2017-10-11T00:25:39.515Z,9.77
2017-10-11T00:28:08.492Z,12.80
2017-10-11T00:30:37.472Z,10.30
2017-10-11T00:33:06.464Z,9.50
2017-10-11T00:35:35.813Z,10.43
2017-10-11T00:38:04.800Z,11.17
2017-10-11T00:40:34.531Z,12.10
2017-10-11T00:43:03.905Z,10.50
2017-10-11T00:45:33.611Z,11.00
2017-10-11T00:48:02.623Z,17.93
2017-10-11T00:50:31.601Z,13.13
2017-10-11T00:53:00.548Z,11.93
2017-10-11T00:55:29.518Z,11.87
2017-10-11T00:57:59.249Z,15.50
2017-10-11T01:00:28.225Z,16.07
2017-10-11T01:02:57.565Z,13.90
2017-10-11T01:05:26.544Z,12.83
2017-10-11T01:07:55.485Z,18.63
2017-10-11T01:10:24.847Z,15.47
2017-10-11T01:12:53.815Z,16.60
2017-10-11T01:15:23.569Z,12.33
2017-10-11T01:17:52.555Z,11.43
2017-10-11T01:20:21.549Z,13.30
2017-10-11T01:22:50.569Z,14.53
2017-10-11T01:25:19.945Z,18.33
2017-10-11T01:27:49.060Z,15.33
2017-10-11T01:30:20.041Z,16.57
2017-10-11T01:32:48.994Z,17.20
2017-10-11T01:35:18.858Z,16.63
2017-10-11T01:37:47.832Z,18.70
2017-10-11T01:40:17.229Z,18.37
2017-10-11T01:42:46.348Z,17.47
2017-10-11T01:45:15.382Z,16.13
2017-10-11T01:47:44.730Z,17.47
2017-10-11T01:50:13.704Z,17.23
2017-10-11T01:52:42.660Z,18.87
2017-10-11T01:55:18.385Z,17.23
2017-10-11T01:57:47.336Z,16.10
2017-10-11T02:00:16.326Z,16.10
2017-10-11T02:02:45.280Z,12.97
2017-10-11T02:05:14.329Z,18.37
2017-10-11T02:07:43.768Z,15.33
2017-10-11T02:10:13.140Z,14.23
2017-10-11T02:12:42.500Z,15.70
2017-10-11T02:15:11.479Z,13.63
2017-10-11T02:17:41.203Z,16.90
2017-10-11T02:20:10.263Z,17.87
2017-10-11T02:22:39.637Z,16.40
2017-10-11T02:25:08.620Z,13.47
2017-10-11T02:27:38.005Z,15.73
2017-10-11T02:30:06.973Z,12.03
2017-10-11T02:32:36.734Z,11.57
2017-10-11T02:35:05.724Z,16.50
2017-10-11T02:37:34.711Z,13.83
2017-10-11T02:40:03.707Z,13.80
2017-10-11T02:42:32.700Z,12.17
2017-10-11T02:45:01.647Z,9.43
2017-10-11T02:47:31.376Z,11.27
2017-10-11T02:50:00.327Z,13.37
2017-10-11T02:52:29.708Z,11.07
2017-10-11T02:54:58.737Z,14.60
2017-10-11T02:57:28.448Z,15.10
2017-10-11T02:59:58.191Z,11.27
2017-10-11T03:02:27.581Z,11.93
2017-10-11T03:04:56.949Z,14.37
2017-10-11T03:07:26.686Z,12.93
2017-10-11T03:09:55.649Z,12.47
2017-10-11T03:12:24.992Z,14.20
2017-10-11T03:14:54.083Z,11.80
2017-10-11T03:17:24.197Z,15.93
2017-10-11T03:19:53.182Z,13.53
2017-10-11T03:22:22.544Z,11.23
2017-10-11T03:24:51.493Z,10.37
2017-10-11T03:27:20.846Z,19.23
2017-10-11T03:29:50.604Z,12.50
2017-10-11T03:32:19.549Z,11.00
2017-10-11T03:34:49.359Z,11.53
2017-10-11T03:37:18.744Z,9.77
2017-10-11T03:39:47.686Z,13.20
2017-10-11T03:42:17.428Z,12.30
2017-10-11T03:44:46.788Z,11.27
2017-10-11T03:47:15.760Z,9.20
2017-10-11T03:49:45.571Z,10.17
2017-10-11T03:52:15.310Z,9.63
2017-10-11T03:54:44.263Z,9.70
2017-10-11T03:57:14.003Z,8.50
2017-10-11T03:59:43.417Z,11.90
2017-10-11T04:02:12.391Z,11.73
2017-10-11T04:04:41.361Z,14.40
2017-10-11T04:07:11.100Z,12.60
2017-10-11T04:09:40.450Z,12.70
2017-10-11T04:12:09.841Z,12.27
2017-10-11T04:14:39.173Z,10.73
2017-10-11T04:17:08.544Z,14.53
2017-10-11T04:19:37.892Z,12.13
2017-10-11T04:22:06.864Z,15.07
2017-10-11T04:24:36.579Z,10.23
2017-10-11T04:27:06.393Z,12.50
2017-10-11T04:29:36.592Z,11.03
2017-10-11T04:32:05.998Z,14.53
2017-10-11T04:34:34.941Z,12.67
2017-10-11T04:37:04.402Z,10.27
2017-10-11T04:39:34.114Z,13.30
2017-10-11T04:42:03.928Z,12.00
2017-10-11T04:44:33.644Z,11.53
2017-10-11T04:47:02.634Z,23.00
2017-10-11T04:49:31.620Z,13.10
2017-10-11T04:52:01.338Z,12.63
2017-10-11T04:54:30.320Z,15.47
2017-10-11T04:57:00.032Z,12.23
2017-10-11T04:59:29.104Z,11.47
2017-10-11T05:01:58.834Z,15.03
2017-10-11T05:04:28.610Z,12.43
2017-10-11T05:06:57.564Z,12.73
2017-10-11T05:09:26.561Z,12.07
2017-10-11T05:11:55.514Z,15.67
2017-10-11T05:14:25.255Z,16.43
2017-10-11T05:16:55.024Z,12.60
2017-10-11T05:19:24.838Z,17.20
2017-10-11T05:21:53.828Z,12.47
2017-10-11T05:24:23.641Z,15.87
2017-10-11T05:26:52.725Z,16.13
2017-10-11T05:29:21.708Z,15.07
2017-10-11T05:31:50.670Z,16.67
2017-10-11T05:34:19.701Z,16.40
2017-10-11T05:36:49.441Z,20.50
2017-10-11T05:39:18.438Z,20.80
2017-10-11T05:41:47.788Z,19.40
2017-10-11T05:44:18.294Z,20.00
2017-10-11T05:46:48.086Z,20.10
2017-10-11T05:49:17.070Z,22.97
2017-10-11T05:51:46.848Z,18.23
2017-10-11T05:54:16.571Z,20.97
2017-10-11T05:56:45.607Z,18.37
2017-10-11T05:59:14.583Z,23.20
2017-10-11T06:01:43.613Z,22.37
2017-10-11T06:04:12.641Z,23.40
2017-10-11T06:06:42.409Z,28.10
2017-10-11T06:09:11.436Z,24.70
2017-10-11T06:11:41.201Z,24.00
2017-10-11T06:14:10.563Z,20.37
2017-10-11T06:16:39.724Z,18.77
2017-10-11T06:19:08.788Z,25.10
2017-10-11T06:21:37.752Z,20.27
2017-10-11T06:24:06.788Z,23.57
2017-10-11T06:26:36.530Z,22.53
2017-10-11T06:29:06.355Z,23.23
2017-10-11T06:31:36.075Z,21.80
2017-10-11T06:34:05.458Z,28.93
2017-10-11T06:36:35.174Z,23.60
2017-10-11T06:39:04.224Z,23.10
2017-10-11T06:41:33.227Z,16.70
2017-10-11T06:44:02.649Z,24.80
2017-10-11T06:46:32.005Z,22.00
2017-10-11T06:49:01.396Z,23.03
2017-10-11T06:51:30.346Z,23.73
2017-10-11T06:54:00.105Z,25.90
2017-10-11T06:56:29.084Z,26.03
2017-10-11T06:58:58.061Z,23.57
2017-10-11T07:01:27.821Z,22.47
2017-10-11T07:03:57.565Z,32.53
2017-10-11T07:06:26.525Z,38.60
2017-10-11T07:08:55.589Z,26.50
2017-10-11T07:11:24.540Z,24.90
2017-10-11T07:13:54.354Z,27.10
2017-10-11T07:16:23.718Z,22.10
2017-10-11T07:18:52.740Z,24.57
2017-10-11T07:21:21.725Z,29.13
2017-10-11T07:23:51.529Z,32.47
2017-10-11T07:26:20.492Z,27.10
2017-10-11T07:28:51.416Z,30.67
2017-10-11T07:31:20.489Z,28.93
2017-10-11T07:33:49.489Z,28.90
2017-10-11T07:36:18.465Z,28.37
2017-10-11T07:38:48.153Z,33.60
2017-10-11T07:41:17.537Z,31.33
2017-10-11T07:43:47.285Z,23.57
2017-10-11T07:46:18.408Z,27.60
2017-10-11T07:48:48.132Z,28.77
2017-10-11T07:51:18.431Z,30.13
2017-10-11T07:53:47.661Z,22.87
2017-10-11T07:56:17.069Z,22.17
2017-10-11T07:58:46.048Z,20.43
2017-10-11T08:01:15.887Z,26.20
2017-10-11T08:03:44.907Z,20.27
2017-10-11T08:06:13.961Z,20.10
2017-10-11T08:08:43.102Z,22.97
2017-10-11T08:11:13.849Z,21.20
2017-10-11T08:13:46.165Z,24.20
2017-10-11T08:16:15.953Z,26.00
2017-10-11T08:18:44.954Z,22.53
2017-10-11T08:21:14.877Z,22.10
2017-10-11T08:23:43.922Z,24.47
2017-10-11T08:26:13.324Z,25.37
2017-10-11T08:28:44.184Z,19.70
2017-10-11T08:31:13.553Z,21.83
2017-10-11T08:33:42.607Z,26.67
2017-10-11T08:36:11.587Z,20.23
2017-10-11T08:38:40.599Z,21.13
2017-10-11T08:41:09.575Z,23.07
2017-10-11T08:43:39.443Z,22.43
2017-10-11T08:46:08.468Z,23.40
2017-10-11T08:48:38.206Z,23.17
2017-10-11T08:51:07.193Z,25.20
2017-10-11T08:53:36.139Z,22.80
2017-10-11T08:56:05.103Z,22.27
2017-10-11T08:58:34.066Z,21.90
2017-10-11T09:01:03.480Z,24.30
2017-10-11T09:03:32.851Z,25.03
2017-10-11T09:06:01.805Z,24.33
2017-10-11T09:08:30.798Z,23.10
2017-10-11T09:11:00.517Z,23.63
2017-10-11T09:13:30.312Z,26.00
2017-10-11T09:16:00.061Z,20.20
2017-10-11T09:18:29.045Z,23.27
2017-10-11T09:20:58.401Z,22.60
2017-10-11T09:23:27.386Z,21.47
2017-10-11T09:25:56.395Z,22.40
2017-10-11T09:28:25.464Z,23.63
2017-10-11T09:30:54.441Z,20.97
2017-10-11T09:33:23.769Z,19.97
2017-10-11T09:35:52.761Z,26.30
2017-10-11T09:38:21.790Z,21.47
2017-10-11T09:40:51.553Z,21.67
2017-10-11T09:43:20.533Z,23.45
2017-10-11T09:45:49.508Z,23.67
2017-10-11T09:48:18.490Z,20.53
2017-10-11T09:50:48.223Z,20.30
2017-10-11T09:53:17.201Z,19.00
2017-10-11T09:55:46.595Z,21.13
2017-10-11T09:58:15.664Z,21.67
2017-10-11T10:00:45.409Z,18.83
2017-10-11T10:03:14.367Z,19.80
2017-10-11T10:05:43.776Z,18.30
2017-10-11T10:08:13.489Z,20.60
2017-10-11T10:10:42.561Z,18.80
2017-10-11T10:13:12.292Z,17.90
2017-10-11T10:15:41.777Z,15.90
2017-10-11T10:18:11.525Z,16.30
2017-10-11T10:20:40.509Z,21.93
2017-10-11T10:23:09.899Z,16.47
2017-10-11T10:25:38.857Z,20.77
2017-10-11T10:28:07.853Z,15.17
2017-10-11T10:30:36.804Z,15.80
2017-10-11T10:33:05.792Z,14.43
2017-10-11T10:35:34.765Z,15.03
2017-10-11T10:38:03.754Z,14.63
2017-10-11T10:40:32.825Z,13.70
2017-10-11T10:43:02.657Z,13.27
2017-10-11T10:45:31.734Z,11.70
2017-10-11T10:48:01.512Z,13.70
2017-10-11T10:50:31.247Z,12.83
2017-10-11T10:53:00.981Z,12.70
2017-10-11T10:55:29.961Z,13.50
2017-10-11T10:57:59.313Z,13.90
2017-10-11T11:00:28.301Z,15.13
2017-10-11T11:02:58.084Z,12.83
2017-10-11T11:05:27.077Z,14.97
2017-10-11T11:07:56.037Z,15.13
2017-10-11T11:10:25.423Z,13.37
2017-10-11T11:12:54.427Z,14.13
2017-10-11T11:15:24.182Z,14.57
2017-10-11T11:17:53.201Z,13.27
2017-10-11T11:20:22.172Z,14.57
2017-10-11T11:22:51.564Z,13.47
2017-10-11T11:25:20.517Z,13.40
2017-10-11T11:27:50.303Z,13.20
2017-10-11T11:30:19.277Z,12.27
2017-10-11T11:32:48.729Z,14.43
2017-10-11T11:35:18.472Z,16.27
2017-10-11T11:37:47.443Z,13.00
2017-10-11T11:40:17.185Z,14.57
2017-10-11T11:42:46.193Z,13.80
2017-10-11T11:45:15.581Z,12.10
2017-10-11T11:47:45.052Z,14.50
2017-10-11T11:50:14.122Z,12.80
2017-10-11T11:52:43.938Z,10.97
2017-10-11T11:55:13.683Z,12.20
2017-10-11T11:57:43.423Z,10.00
2017-10-11T12:00:12.404Z,9.97
2017-10-11T12:02:41.379Z,10.87
2017-10-11T12:05:11.581Z,10.07
2017-10-11T12:07:40.645Z,11.90
2017-10-11T12:10:10.387Z,9.70
2017-10-11T12:12:39.362Z,11.27
2017-10-11T12:15:08.716Z,10.83
2017-10-11T12:17:38.080Z,10.70
2017-10-11T12:20:07.024Z,8.10
2017-10-11T12:22:36.004Z,11.03
2017-10-11T12:25:04.952Z,8.70
2017-10-11T12:27:34.690Z,7.63
2017-10-11T12:30:03.660Z,7.40
2017-10-11T12:32:32.620Z,7.30
2017-10-11T12:35:02.332Z,8.03
2017-10-11T12:37:31.707Z,6.80
2017-10-11T12:40:00.676Z,7.30
2017-10-11T12:42:29.635Z,6.37
2017-10-11T12:44:58.574Z,7.67
2017-10-11T12:47:27.540Z,6.80
2017-10-11T12:49:56.496Z,6.93
2017-10-11T12:52:25.867Z,7.32
2017-10-11T12:54:54.821Z,6.80
2017-10-11T12:57:24.193Z,7.03
2017-10-11T12:59:53.902Z,7.10
2017-10-11T13:02:23.816Z,6.70
2017-10-11T13:04:52.782Z,7.00
2017-10-11T13:07:21.737Z,6.63
2017-10-11T13:09:50.721Z,6.90
2017-10-11T13:12:19.675Z,5.43
2017-10-11T13:14:49.397Z,6.10
2017-10-11T13:17:18.768Z,7.50
2017-10-11T13:19:47.737Z,5.40
2017-10-11T13:22:16.681Z,5.23
2017-10-11T13:24:46.519Z,10.43
2017-10-11T13:27:15.861Z,4.67
2017-10-11T13:29:44.838Z,5.60
2017-10-11T13:32:13.791Z,6.77
2017-10-11T13:34:42.743Z,7.70
2017-10-11T13:37:12.467Z,6.13
2017-10-11T13:39:42.266Z,4.77
2017-10-11T13:42:11.262Z,4.63
2017-10-11T13:44:40.619Z,4.50
2017-10-11T13:47:09.589Z,4.67
2017-10-11T13:49:38.881Z,4.17
2017-10-11T13:52:07.821Z,3.77
2017-10-11T13:54:36.787Z,4.20
2017-10-11T13:57:06.497Z,4.13
2017-10-11T13:59:35.470Z,4.30
2017-10-11T14:02:04.406Z,4.57
2017-10-11T14:04:33.385Z,5.07
2017-10-11T14:07:02.329Z,4.30
2017-10-11T14:09:31.717Z,4.50
2017-10-11T14:12:01.421Z,3.90
2017-10-11T14:14:31.160Z,4.30
2017-10-11T14:17:00.832Z,5.80
2017-10-11T14:19:29.766Z,4.60
2017-10-11T14:21:59.495Z,4.50
2017-10-11T14:24:28.437Z,3.97
2017-10-11T14:26:58.177Z,4.13
2017-10-11T14:29:27.148Z,3.80
2017-10-11T14:31:56.488Z,3.77
2017-10-11T14:34:25.518Z,4.10
2017-10-11T14:36:55.392Z,3.27
2017-10-11T14:39:25.308Z,5.10
2017-10-11T14:41:55.064Z,4.63
2017-10-11T14:44:24.975Z,3.23
2017-10-11T14:46:54.374Z,3.90
2017-10-11T14:49:24.128Z,3.53
2017-10-11T14:51:53.185Z,7.93
2017-10-11T14:54:22.663Z,3.80
2017-10-11T14:56:52.461Z,3.57
2017-10-11T14:59:21.479Z,5.80
2017-10-11T15:01:51.204Z,3.30
2017-10-11T15:04:20.394Z,4.00
2017-10-11T15:06:49.795Z,3.90
2017-10-11T15:09:18.858Z,4.27
2017-10-11T15:11:48.244Z,4.37
2017-10-11T15:14:18.635Z,3.53
2017-10-11T15:16:47.669Z,5.13
2017-10-11T15:19:16.693Z,4.37
2017-10-11T15:21:47.214Z,3.33
2017-10-11T15:24:17.515Z,3.60
2017-10-11T15:26:46.475Z,6.23
2017-10-11T15:29:15.568Z,3.90
2017-10-11T15:31:44.520Z,3.90
2017-10-11T15:34:14.950Z,5.77
2017-10-11T15:36:44.918Z,4.40
2017-10-11T15:39:14.843Z,4.93
2017-10-11T15:41:43.864Z,4.70
2017-10-11T15:44:12.808Z,6.67
2017-10-11T15:46:42.625Z,5.47
2017-10-11T15:49:12.184Z,6.33
2017-10-11T15:51:41.152Z,5.00
2017-10-11T15:54:10.127Z,4.90
2017-10-11T15:56:40.100Z,5.03
2017-10-11T15:59:09.513Z,5.27
2017-10-11T16:01:38.891Z,5.67
2017-10-11T16:04:08.774Z,4.90
2017-10-11T16:06:38.553Z,6.57
2017-10-11T16:09:10.663Z,5.77
2017-10-11T16:11:40.431Z,6.03
2017-10-11T16:14:09.790Z,6.43
2017-10-11T16:16:40.486Z,6.17
2017-10-11T16:19:10.285Z,8.20
2017-10-11T16:21:39.314Z,5.90
2017-10-11T16:24:09.077Z,6.87
2017-10-11T16:26:38.801Z,6.17
2017-10-11T16:29:09.387Z,9.23
2017-10-11T16:31:39.596Z,6.47
2017-10-11T16:34:08.720Z,6.57
2017-10-11T16:36:37.685Z,7.37
2017-10-11T16:39:06.625Z,6.30
2017-10-11T16:41:35.588Z,6.10
2017-10-11T16:44:05.328Z,6.47
2017-10-11T16:46:34.346Z,5.47
2017-10-11T16:49:03.304Z,4.93
2017-10-11T16:51:32.649Z,5.67
2017-10-11T16:54:02.396Z,4.90
2017-10-11T16:56:31.446Z,5.90
2017-10-11T16:59:00.437Z,4.60
2017-10-11T17:01:29.380Z,5.13
2017-10-11T17:03:58.747Z,5.40
2017-10-11T17:06:27.746Z,6.40
2017-10-11T17:08:56.753Z,5.63
2017-10-11T17:11:26.460Z,5.37
2017-10-11T17:13:55.458Z,5.50
2017-10-11T17:16:24.473Z,5.50
2017-10-11T17:18:53.549Z,4.67
2017-10-11T17:21:22.592Z,4.47
2017-10-11T17:23:51.919Z,5.33
2017-10-11T17:26:21.302Z,5.97
2017-10-11T17:28:50.296Z,6.10
2017-10-11T17:31:20.014Z,5.47
2017-10-11T17:33:49.366Z,7.50
2017-10-11T17:36:18.335Z,5.60
2017-10-11T17:38:47.316Z,4.97
2017-10-11T17:41:16.698Z,5.10
2017-10-11T17:43:45.648Z,5.23
2017-10-11T17:46:14.633Z,4.57
2017-10-11T17:48:43.580Z,6.90
2017-10-11T17:51:12.613Z,5.43
2017-10-11T17:53:41.561Z,7.20
2017-10-11T17:56:10.936Z,5.20
2017-10-11T17:58:40.657Z,4.00
2017-10-11T18:01:10.433Z,4.57
2017-10-11T18:03:39.522Z,5.20
2017-10-11T18:06:08.493Z,4.90
2017-10-11T18:08:37.449Z,5.93
2017-10-11T18:11:06.437Z,7.70
2017-10-11T18:13:35.781Z,5.50
2017-10-11T18:16:04.773Z,4.03
2017-10-11T18:18:33.724Z,4.50
2017-10-11T18:21:02.713Z,4.37
2017-10-11T18:23:32.553Z,4.37
2017-10-11T18:26:01.581Z,6.10
2017-10-11T18:28:30.570Z,5.73
2017-10-11T18:30:59.544Z,4.35
2017-10-11T18:33:28.570Z,4.33
2017-10-11T18:35:57.799Z,6.30
2017-10-11T18:38:27.224Z,4.10
2017-10-11T18:40:57.074Z,4.13
2017-10-11T18:43:26.101Z,4.67
2017-10-11T18:45:55.508Z,4.70
2017-10-11T18:48:25.396Z,5.40
2017-10-11T18:50:54.390Z,3.97
2017-10-11T18:53:24.376Z,4.20
2017-10-11T18:55:53.408Z,4.80
2017-10-11T18:58:23.130Z,3.93
2017-10-11T19:00:52.126Z,4.20
2017-10-11T19:03:21.227Z,4.20
2017-10-11T19:05:50.213Z,4.27
2017-10-11T19:08:19.587Z,5.13
2017-10-11T19:10:48.982Z,4.40
2017-10-11T19:13:18.946Z,4.60
2017-10-11T19:15:48.690Z,4.90
2017-10-11T19:18:17.667Z,4.83
2017-10-11T19:20:46.703Z,4.80
2017-10-11T19:23:15.720Z,4.43
2017-10-11T19:25:44.691Z,4.87
2017-10-11T19:28:13.676Z,4.53
2017-10-11T19:30:42.621Z,4.90
2017-10-11T19:33:11.691Z,4.83
2017-10-11T19:35:40.680Z,4.33
2017-10-11T19:38:09.745Z,5.70
2017-10-11T19:40:39.519Z,5.50
2017-10-11T19:43:08.653Z,4.70
2017-10-11T19:45:38.410Z,4.60
2017-10-11T19:48:07.421Z,5.87
2017-10-11T19:50:36.386Z,4.70
2017-10-11T19:53:06.162Z,5.33
2017-10-11T19:55:35.976Z,4.93
2017-10-11T19:58:05.197Z,5.17
2017-10-11T20:00:34.180Z,6.67
2017-10-11T20:03:03.963Z,5.07
2017-10-11T20:05:32.956Z,4.30
2017-10-11T20:08:01.944Z,4.80
2017-10-11T20:10:31.049Z,7.23
2017-10-11T20:13:00.787Z,5.23
2017-10-11T20:15:29.803Z,5.27
2017-10-11T20:17:58.751Z,4.70
2017-10-11T20:20:28.534Z,4.30
2017-10-11T20:22:57.490Z,4.23
2017-10-11T20:25:26.884Z,6.27
2017-10-11T20:27:56.228Z,4.60
2017-10-11T20:30:25.983Z,4.53
2017-10-11T20:32:54.950Z,4.40
2017-10-11T20:35:24.293Z,4.50
2017-10-11T20:37:53.734Z,3.80
2017-10-11T20:40:22.716Z,4.60
2017-10-11T20:42:52.468Z,4.10
2017-10-11T20:45:21.449Z,5.17
2017-10-11T20:47:51.440Z,4.63
2017-10-11T20:50:20.374Z,5.60
2017-10-11T20:52:49.740Z,5.47
2017-10-11T20:55:19.093Z,4.80
2017-10-11T20:57:49.213Z,5.03
2017-10-11T21:00:18.181Z,7.20
2017-10-11T21:02:47.191Z,3.57
2017-10-11T21:05:26.098Z,9.97
2017-10-11T21:07:55.107Z,4.47
2017-10-11T21:10:24.076Z,5.57
2017-10-11T21:12:53.406Z,4.50
2017-10-11T21:15:22.449Z,5.43
2017-10-11T21:17:51.791Z,5.63
2017-10-11T21:20:20.850Z,4.57
2017-10-11T21:22:49.781Z,4.73
2017-10-11T21:25:19.516Z,5.60
2017-10-11T21:27:48.477Z,5.20
2017-10-11T21:30:17.837Z,5.73
2017-10-11T21:32:47.586Z,5.93
2017-10-11T21:35:16.529Z,6.20
2017-10-11T21:37:45.942Z,6.53
2017-10-11T21:40:14.903Z,4.50
2017-10-11T21:42:43.902Z,6.10
2017-10-11T21:45:13.663Z,7.03
2017-10-11T21:47:43.375Z,5.60
2017-10-11T21:50:12.366Z,4.67
2017-10-11T21:52:41.384Z,4.80
2017-10-11T21:55:10.784Z,5.80
2017-10-11T21:57:40.516Z,5.50
2017-10-11T22:00:09.451Z,4.90
2017-10-11T22:02:38.443Z,6.73
2017-10-11T22:05:07.394Z,5.97
2017-10-11T22:07:36.343Z,6.53
2017-10-11T22:10:06.447Z,6.70
2017-10-11T22:12:35.383Z,5.10
2017-10-11T22:15:04.342Z,4.73
2017-10-11T22:17:33.678Z,8.13
2017-10-11T22:20:02.668Z,8.20
2017-10-11T22:22:31.606Z,5.97
2017-10-11T22:25:00.573Z,6.77
2017-10-11T22:27:29.918Z,5.30
2017-10-11T22:29:59.073Z,5.43
2017-10-11T22:32:28.393Z,6.67
2017-10-11T22:34:57.739Z,5.80
2017-10-11T22:37:27.489Z,6.07
2017-10-11T22:39:57.201Z,5.07
2017-10-11T22:42:26.580Z,7.67
2017-10-11T22:44:55.543Z,4.43
2017-10-11T22:47:24.515Z,9.00
2017-10-11T22:49:53.530Z,5.40
2017-10-11T22:52:22.458Z,6.30
2017-10-11T22:54:51.397Z,6.90
2017-10-11T22:57:20.328Z,7.20
2017-10-11T22:59:49.298Z,5.77
2017-10-11T23:02:18.625Z,6.13
2017-10-11T23:04:47.621Z,4.03
2017-10-11T23:07:16.980Z,5.27
2017-10-11T23:09:46.733Z,5.40
2017-10-11T23:12:15.655Z,4.27
2017-10-11T23:14:44.612Z,6.20
2017-10-11T23:17:13.538Z,4.70
2017-10-11T23:19:42.880Z,4.53
2017-10-11T23:22:12.580Z,4.70
2017-10-11T23:24:41.546Z,7.63
2017-10-11T23:27:10.493Z,5.40
2017-10-11T23:29:40.241Z,4.90
2017-10-11T23:32:09.192Z,4.20
2017-10-11T23:34:38.904Z,4.80
2017-10-11T23:37:08.609Z,4.90
2017-10-11T23:39:37.536Z,3.67
2017-10-11T23:42:06.484Z,4.00
2017-10-11T23:44:35.436Z,3.20
2017-10-11T23:47:04.376Z,5.60
2017-10-11T23:49:34.068Z,5.07
2017-10-11T23:52:03.076Z,4.97
2017-10-11T23:54:32.459Z,5.10
2017-10-11T23:57:01.401Z,4.70
2017-10-11T23:59:30.321Z,5.97
